createdAt,value
2022-11-23T00:01:31.933Z,18.67
2022-11-23T00:04:04.187Z,16.97
2022-11-23T00:06:31.295Z,13.77
2022-11-23T00:08:58.180Z,20.37
2022-11-23T00:11:27.026Z,15.17
2022-11-23T00:13:55.152Z,23.63
2022-11-23T00:16:25.688Z,19.03
2022-11-23T00:18:58.125Z,23.13
2022-11-23T00:21:27.129Z,24.23
2022-11-23T00:23:53.905Z,29.37
2022-11-23T00:26:20.730Z,29.47
2022-11-23T00:28:47.370Z,27.97
2022-11-23T00:31:16.910Z,28.00
2022-11-23T00:33:47.657Z,28.43
2022-11-23T00:36:15.797Z,29.17
2022-11-23T00:38:44.266Z,29.87
2022-11-23T00:41:17.803Z,26.50
2022-11-23T00:43:44.663Z,20.20
2022-11-23T00:46:28.919Z,24.80
2022-11-23T00:48:58.166Z,21.27
2022-11-23T00:51:28.736Z,22.77
2022-11-23T00:53:55.505Z,24.80
2022-11-23T00:56:21.972Z,21.73
2022-11-23T00:58:53.804Z,20.03
2022-11-23T01:01:24.222Z,19.37
2022-11-23T01:03:57.571Z,19.00
2022-11-23T01:06:34.034Z,20.70
2022-11-23T01:09:08.714Z,14.80
2022-11-23T01:11:35.308Z,19.33
2022-11-23T01:14:02.517Z,21.50
2022-11-23T01:16:33.632Z,20.13
2022-11-23T01:19:04.779Z,18.20
2022-11-23T01:21:33.253Z,18.67
2022-11-23T01:24:03.501Z,18.53
2022-11-23T01:26:29.969Z,18.23
2022-11-23T01:28:56.413Z,19.07
2022-11-23T01:31:24.909Z,19.30
2022-11-23T01:33:56.400Z,17.07
2022-11-23T01:36:28.325Z,21.00
2022-11-23T01:38:55.664Z,21.73
2022-11-23T01:41:25.403Z,25.77
2022-11-23T01:43:52.719Z,22.50
2022-11-23T01:46:19.806Z,19.53
2022-11-23T01:49:03.044Z,18.93
2022-11-23T01:51:38.931Z,17.93
2022-11-23T01:54:26.096Z,21.50
2022-11-23T01:57:05.887Z,18.07
2022-11-23T01:59:34.964Z,17.53
2022-11-23T02:02:02.775Z,22.17
2022-11-23T02:04:43.093Z,18.07
2022-11-23T02:07:10.789Z,20.27
2022-11-23T02:09:37.590Z,21.27
2022-11-23T02:12:11.212Z,28.73
2022-11-23T02:14:40.146Z,20.87
2022-11-23T02:17:07.104Z,20.77
2022-11-23T02:20:18.140Z,18.90
2022-11-23T02:24:38.306Z,25.17
2022-11-23T02:27:06.169Z,18.63
2022-11-23T02:29:34.236Z,18.50
2022-11-23T02:32:00.775Z,21.67
2022-11-23T02:34:27.241Z,17.90
2022-11-23T02:36:56.933Z,20.47
2022-11-23T02:39:39.713Z,19.67
2022-11-23T02:42:06.593Z,19.00
2022-11-23T02:47:28.760Z,18.67
2022-11-23T02:49:55.243Z,15.40
2022-11-23T02:52:21.971Z,16.20
2022-11-23T02:54:48.412Z,21.97
2022-11-23T02:57:15.145Z,13.67
2022-11-23T02:59:41.598Z,19.47
2022-11-23T03:02:08.279Z,22.87
2022-11-23T03:04:34.785Z,17.83
2022-11-23T03:07:01.290Z,14.80
2022-11-23T03:09:27.750Z,20.80
2022-11-23T03:11:55.124Z,14.50
2022-11-23T03:14:21.962Z,12.60
2022-11-23T03:16:48.600Z,13.13
2022-11-23T03:19:15.213Z,16.50
2022-11-23T03:21:41.687Z,16.30
2022-11-23T03:24:08.184Z,16.00
2022-11-23T03:26:34.661Z,17.43
2022-11-23T03:29:01.107Z,13.43
2022-11-23T03:31:27.576Z,10.80
2022-11-23T03:33:54.033Z,10.43
2022-11-23T03:36:20.528Z,11.40
2022-11-23T03:38:46.974Z,10.30
2022-11-23T03:41:13.437Z,8.00
2022-11-23T03:43:39.906Z,8.00
2022-11-23T03:46:06.471Z,8.93
2022-11-23T03:48:32.937Z,8.10
2022-11-23T03:50:59.412Z,7.60
2022-11-23T03:53:25.889Z,8.77
2022-11-23T03:55:54.697Z,8.93
2022-11-23T03:58:21.178Z,7.27
2022-11-23T04:00:47.673Z,7.37
2022-11-23T04:03:14.176Z,11.23
2022-11-23T04:05:40.664Z,11.33
2022-11-23T04:08:07.139Z,11.20
2022-11-23T04:10:33.604Z,8.47
2022-11-23T04:13:00.048Z,10.87
2022-11-23T04:15:26.542Z,10.63
2022-11-23T04:17:54.728Z,15.03
2022-11-23T04:20:21.347Z,15.90
2022-11-23T04:22:47.806Z,16.83
2022-11-23T04:25:14.305Z,18.40
2022-11-23T04:27:40.767Z,13.70
2022-11-23T04:30:08.771Z,19.33
2022-11-23T04:32:35.226Z,20.30
2022-11-23T04:35:01.672Z,17.00
2022-11-23T04:37:28.182Z,13.87
2022-11-23T04:39:54.625Z,14.60
2022-11-23T04:42:21.364Z,15.17
2022-11-23T04:44:47.980Z,15.50
2022-11-23T04:47:14.514Z,14.67
2022-11-23T04:49:40.976Z,14.07
2022-11-23T04:52:07.441Z,11.50
2022-11-23T04:54:33.901Z,12.00
2022-11-23T04:57:00.384Z,10.93
2022-11-23T04:59:26.841Z,11.63
2022-11-23T05:01:53.301Z,13.27
2022-11-23T05:04:19.800Z,10.10
2022-11-23T05:06:46.549Z,14.17
2022-11-23T05:09:13.340Z,16.27
2022-11-23T05:11:39.798Z,12.17
2022-11-23T05:14:06.243Z,17.07
2022-11-23T05:16:33.064Z,13.90
2022-11-23T05:18:59.538Z,17.83
2022-11-23T05:21:26.101Z,13.00
2022-11-23T05:23:52.607Z,19.90
2022-11-23T05:26:19.505Z,25.87
2022-11-23T05:28:46.029Z,29.23
2022-11-23T05:31:12.533Z,37.37
2022-11-23T05:33:39.170Z,29.23
2022-11-23T05:36:06.317Z,38.60
2022-11-23T05:38:32.792Z,26.97
2022-11-23T05:40:59.267Z,27.53
2022-11-23T05:43:25.739Z,28.83
2022-11-23T05:45:52.299Z,26.33
2022-11-23T05:48:18.843Z,22.57
2022-11-23T05:50:45.314Z,21.83
2022-11-23T05:53:11.771Z,23.67
2022-11-23T05:55:38.234Z,23.80
2022-11-23T05:58:04.837Z,24.07
2022-11-23T06:00:31.306Z,35.67
2022-11-23T06:03:01.672Z,35.57
2022-11-23T06:05:29.551Z,35.50
2022-11-23T06:07:56.400Z,37.10
2022-11-23T06:10:23.135Z,36.33
2022-11-23T06:12:49.660Z,29.50
2022-11-23T06:15:17.571Z,29.87
2022-11-23T06:17:44.309Z,34.63
2022-11-23T06:20:11.070Z,33.90
2022-11-23T06:22:37.535Z,25.63
2022-11-23T06:25:04.297Z,23.80
2022-11-23T06:27:30.781Z,26.77
2022-11-23T06:29:57.250Z,29.50
2022-11-23T06:32:23.710Z,36.80
2022-11-23T06:34:50.176Z,25.13
2022-11-23T06:37:16.629Z,29.07
2022-11-23T06:39:43.100Z,28.53
2022-11-23T06:45:04.549Z,23.40
2022-11-23T06:47:30.996Z,25.33
2022-11-23T06:49:57.495Z,29.83
2022-11-23T06:52:23.946Z,29.20
2022-11-23T06:54:50.410Z,29.17
2022-11-23T06:57:22.471Z,26.44
2022-11-23T06:59:48.961Z,25.07
2022-11-23T07:02:15.558Z,20.83
2022-11-23T07:04:42.274Z,24.73
2022-11-23T07:07:09.403Z,24.00
2022-11-23T07:09:36.181Z,25.27
2022-11-23T07:12:02.647Z,30.80
2022-11-23T07:14:29.119Z,38.27
2022-11-23T07:16:55.945Z,33.83
2022-11-23T07:19:22.411Z,35.80
2022-11-23T07:21:48.910Z,33.73
2022-11-23T07:24:15.357Z,32.47
2022-11-23T07:26:41.835Z,26.23
2022-11-23T07:29:08.326Z,29.40
2022-11-23T07:31:34.785Z,28.40
2022-11-23T07:34:01.247Z,23.60
2022-11-23T07:36:27.747Z,23.10
2022-11-23T07:38:54.220Z,17.47
2022-11-23T07:41:20.815Z,23.80
2022-11-23T07:43:47.307Z,22.17
2022-11-23T07:46:13.822Z,18.57
2022-11-23T07:48:40.277Z,18.47
2022-11-23T07:51:06.806Z,16.70
2022-11-23T07:53:35.070Z,18.73
2022-11-23T07:56:01.533Z,19.63
2022-11-23T07:58:28.004Z,20.60
2022-11-23T08:00:54.508Z,18.77
2022-11-23T08:03:29.764Z,26.83
2022-11-23T08:05:56.736Z,18.53
2022-11-23T08:08:23.226Z,24.80
2022-11-23T08:10:53.297Z,17.90
2022-11-23T08:13:21.928Z,21.80
2022-11-23T08:15:54.334Z,14.77
2022-11-23T08:18:24.938Z,20.83
2022-11-23T08:20:51.598Z,15.90
2022-11-23T08:23:18.589Z,13.40
2022-11-23T08:25:45.302Z,12.57
2022-11-23T08:28:12.548Z,17.30
2022-11-23T08:30:39.246Z,16.20
2022-11-23T08:33:08.322Z,13.47
2022-11-23T08:35:36.767Z,13.93
2022-11-23T08:38:08.863Z,11.27
2022-11-23T08:40:36.857Z,13.93
2022-11-23T08:43:04.312Z,12.13
2022-11-23T08:45:30.804Z,12.50
2022-11-23T08:48:01.333Z,16.63
2022-11-23T08:50:28.715Z,16.07
2022-11-23T08:52:57.276Z,25.40
2022-11-23T08:55:24.868Z,30.73
2022-11-23T08:57:56.457Z,29.50
2022-11-23T09:00:23.580Z,22.90
2022-11-23T09:02:50.054Z,24.17
2022-11-23T09:05:16.613Z,23.70
2022-11-23T09:07:43.114Z,15.33
2022-11-23T09:10:13.621Z,17.53
2022-11-23T09:12:43.223Z,16.80
2022-11-23T09:15:10.135Z,19.30
2022-11-23T09:17:36.883Z,14.10
2022-11-23T09:20:04.083Z,17.87
2022-11-23T09:22:31.327Z,17.63
2022-11-23T09:24:57.873Z,18.70
2022-11-23T09:27:24.387Z,18.03
2022-11-23T09:29:50.835Z,24.33
2022-11-23T09:32:17.487Z,19.77
2022-11-23T09:34:44.663Z,17.67
2022-11-23T09:37:14.852Z,20.37
2022-11-23T09:39:41.328Z,13.63
2022-11-23T09:45:58.360Z,17.20
2022-11-23T09:49:25.991Z,15.70
2022-11-23T09:51:56.474Z,15.27
2022-11-23T09:54:32.407Z,18.30
2022-11-23T09:57:01.979Z,14.70
2022-11-23T09:59:42.107Z,10.67
2022-11-23T10:02:23.415Z,12.67
2022-11-23T10:04:57.808Z,12.63
2022-11-23T10:08:05.774Z,12.00
2022-11-23T10:10:59.734Z,12.67
2022-11-23T10:13:46.564Z,10.20
2022-11-23T10:21:53.918Z,10.43
2022-11-23T10:24:32.041Z,7.70
2022-11-23T10:26:58.637Z,6.40
2022-11-23T10:29:37.540Z,5.90
2022-11-23T10:32:30.576Z,5.07
2022-11-23T10:35:17.839Z,4.40
2022-11-23T10:37:44.356Z,3.43
2022-11-23T10:40:27.336Z,2.90
2022-11-23T10:43:13.638Z,3.27
2022-11-23T10:45:40.110Z,3.77
2022-11-23T10:48:07.113Z,2.23
2022-11-23T10:50:40.089Z,2.13
2022-11-23T10:53:27.768Z,4.10
2022-11-23T10:55:58.660Z,2.63
2022-11-23T10:58:43.559Z,3.20
2022-11-23T11:01:28.881Z,2.53
2022-11-23T11:04:02.470Z,4.40
2022-11-23T11:06:33.402Z,5.40
2022-11-23T11:09:20.435Z,5.20
2022-11-23T11:11:51.680Z,5.57
2022-11-23T11:14:22.686Z,8.93
2022-11-23T11:16:57.338Z,9.30
2022-11-23T11:19:35.701Z,11.23
2022-11-23T11:22:34.235Z,8.27
2022-11-23T11:25:04.414Z,10.50
2022-11-23T11:27:32.200Z,5.07
2022-11-23T11:30:19.796Z,6.77
2022-11-23T11:33:09.881Z,6.73
2022-11-23T11:35:48.484Z,8.60
2022-11-23T11:38:39.247Z,7.40
2022-11-23T11:41:11.200Z,17.07
2022-11-23T11:43:56.582Z,15.17
2022-11-23T11:46:37.274Z,13.43
2022-11-23T11:49:24.497Z,8.90
2022-11-23T11:52:14.693Z,6.70
2022-11-23T11:56:03.894Z,5.73
2022-11-23T11:58:40.159Z,4.03
2022-11-23T12:02:25.319Z,5.93
2022-11-23T12:06:42.295Z,3.37
2022-11-23T12:09:22.155Z,6.93
2022-11-23T12:11:48.902Z,4.93
2022-11-23T12:14:16.856Z,3.60
2022-11-23T12:19:33.972Z,5.30
2022-11-23T12:23:55.622Z,3.77
2022-11-23T12:29:24.354Z,6.47
2022-11-23T12:34:39.596Z,7.87
2022-11-23T12:40:43.024Z,5.20
2022-11-23T12:43:26.076Z,9.53
2022-11-23T12:46:43.366Z,13.17
2022-11-23T12:52:04.846Z,9.80
2022-11-23T12:55:24.276Z,7.87
2022-11-23T12:59:13.819Z,11.63
2022-11-23T13:01:49.868Z,4.93
2022-11-23T13:10:08.790Z,7.77
2022-11-23T13:19:58.443Z,7.97
2022-11-23T13:22:27.068Z,2.10
2022-11-23T13:25:24.424Z,4.80
2022-11-23T13:28:26.104Z,2.87
2022-11-23T13:31:26.238Z,5.37
2022-11-23T13:33:59.693Z,10.23
2022-11-23T13:37:11.061Z,12.07
2022-11-23T13:40:21.940Z,7.50
2022-11-23T13:42:50.681Z,6.93
2022-11-23T13:45:32.520Z,6.10
2022-11-23T13:48:49.088Z,9.13
2022-11-23T13:51:29.326Z,9.37
2022-11-23T13:54:18.757Z,6.80
2022-11-23T13:56:45.932Z,7.73
2022-11-23T13:59:31.781Z,8.90
2022-11-23T14:02:35.883Z,11.40
2022-11-23T14:05:55.869Z,8.00
2022-11-23T14:08:24.850Z,16.70
2022-11-23T14:10:52.818Z,11.43
2022-11-23T14:13:27.673Z,17.10
2022-11-23T14:16:00.790Z,13.70
2022-11-23T14:22:02.724Z,17.07
2022-11-23T14:26:48.437Z,16.10
2022-11-23T14:31:11.668Z,8.07
2022-11-23T14:34:24.699Z,10.50
2022-11-23T14:38:46.236Z,11.13
2022-11-23T14:41:31.865Z,7.27
2022-11-23T14:44:00.926Z,9.83
2022-11-23T14:46:27.499Z,9.13
2022-11-23T14:49:13.484Z,12.00
2022-11-23T14:51:44.292Z,18.17
2022-11-23T14:54:15.307Z,14.17
2022-11-23T14:56:47.727Z,18.70
2022-11-23T14:59:59.708Z,18.27
2022-11-23T15:02:39.804Z,13.33
2022-11-23T15:05:29.190Z,12.20
2022-11-23T15:08:52.053Z,21.97
2022-11-23T15:11:25.717Z,12.60
2022-11-23T15:13:54.837Z,14.07
2022-11-23T15:16:21.762Z,15.23
2022-11-23T15:18:48.753Z,13.10
2022-11-23T15:21:27.972Z,14.03
2022-11-23T15:23:57.879Z,19.63
2022-11-23T15:26:48.394Z,16.80
2022-11-23T15:29:37.350Z,15.90
2022-11-23T15:32:33.146Z,15.57
2022-11-23T15:35:07.345Z,17.63
2022-11-23T15:37:45.381Z,11.87
2022-11-23T15:40:14.882Z,10.27
2022-11-23T15:42:43.411Z,11.00
2022-11-23T15:47:49.672Z,14.43
2022-11-23T15:50:16.466Z,12.13
2022-11-23T15:52:42.986Z,8.83
2022-11-23T15:55:14.919Z,8.73
2022-11-23T15:57:42.180Z,14.30
2022-11-23T16:00:22.783Z,10.63
2022-11-23T16:02:50.345Z,10.87
2022-11-23T16:05:22.767Z,7.00
2022-11-23T16:07:58.713Z,13.60
2022-11-23T16:10:31.914Z,12.63
2022-11-23T16:13:05.247Z,18.13
2022-11-23T16:15:40.675Z,19.97
2022-11-23T16:18:26.981Z,14.13
2022-11-23T16:21:01.134Z,14.07
2022-11-23T16:23:48.837Z,24.47
2022-11-23T16:26:16.502Z,29.47
2022-11-23T16:28:58.041Z,13.00
2022-11-23T16:31:37.901Z,18.90
2022-11-23T16:34:17.165Z,13.60
2022-11-23T16:36:43.995Z,22.60
2022-11-23T16:39:10.876Z,9.80
2022-11-23T16:41:37.839Z,10.10
2022-11-23T16:44:04.650Z,6.40
2022-11-23T16:46:37.857Z,13.33
2022-11-23T16:49:24.339Z,14.50
2022-11-23T16:51:57.185Z,13.47
2022-11-23T16:54:25.365Z,8.50
2022-11-23T16:56:52.528Z,7.60
2022-11-23T16:59:19.253Z,10.33
2022-11-23T17:01:52.491Z,12.70
2022-11-23T17:04:22.240Z,16.73
2022-11-23T17:06:49.088Z,8.93
2022-11-23T17:09:15.584Z,10.57
2022-11-23T17:11:46.910Z,17.23
2022-11-23T17:14:18.788Z,23.27
2022-11-23T17:16:45.875Z,24.03
2022-11-23T17:19:19.524Z,11.83
2022-11-23T17:21:46.510Z,12.70
2022-11-23T17:24:14.055Z,14.70
2022-11-23T17:26:45.060Z,18.30
2022-11-23T17:29:18.786Z,13.80
2022-11-23T17:31:50.068Z,11.47
2022-11-23T17:34:17.386Z,15.30
2022-11-23T17:36:45.917Z,21.23
2022-11-23T17:39:24.462Z,21.87
2022-11-23T17:41:51.101Z,20.43
2022-11-23T17:44:17.777Z,20.63
2022-11-23T17:46:46.188Z,17.93
2022-11-23T17:49:17.199Z,21.07
2022-11-23T17:51:43.654Z,19.33
2022-11-23T17:54:10.162Z,18.63
2022-11-23T17:56:37.619Z,21.80
2022-11-23T17:59:05.878Z,22.93
2022-11-23T18:01:32.739Z,20.63
2022-11-23T18:04:00.341Z,18.70
2022-11-23T18:06:28.534Z,23.60
2022-11-23T18:08:55.062Z,20.43
2022-11-23T18:11:22.424Z,21.23
2022-11-23T18:13:52.669Z,25.10
2022-11-23T18:16:21.879Z,26.53
2022-11-23T18:18:50.229Z,22.60
2022-11-23T18:21:17.743Z,24.67
2022-11-23T18:23:44.577Z,21.43
2022-11-23T18:26:20.952Z,24.43
2022-11-23T18:28:48.839Z,20.33
2022-11-23T18:31:16.363Z,15.97
2022-11-23T18:33:43.472Z,18.57
2022-11-23T18:36:10.777Z,20.50
2022-11-23T18:38:37.425Z,20.50
2022-11-23T18:41:03.905Z,19.67
2022-11-23T18:43:30.487Z,19.07
2022-11-23T18:45:57.825Z,20.40
2022-11-23T18:48:24.377Z,22.73
2022-11-23T18:50:50.879Z,14.60
2022-11-23T18:53:18.055Z,10.03
2022-11-23T18:55:44.513Z,10.43
2022-11-23T18:58:10.997Z,10.93
2022-11-23T19:00:37.473Z,28.30
2022-11-23T19:03:05.176Z,22.90
2022-11-23T19:05:34.965Z,21.40
2022-11-23T19:08:08.049Z,17.30
2022-11-23T19:10:37.584Z,13.17
2022-11-23T19:13:06.015Z,12.70
2022-11-23T19:15:33.511Z,11.20
2022-11-23T19:18:00.342Z,14.63
2022-11-23T19:20:28.616Z,17.40
2022-11-23T19:22:55.533Z,8.77
2022-11-23T19:25:22.039Z,9.97
2022-11-23T19:27:50.401Z,9.20
2022-11-23T19:30:17.171Z,13.83
2022-11-23T19:32:43.624Z,20.60
2022-11-23T19:35:10.137Z,63.20
2022-11-23T19:37:36.695Z,60.77
2022-11-23T19:40:03.901Z,44.23
2022-11-23T19:42:32.629Z,16.27
2022-11-23T19:44:59.067Z,11.90
2022-11-23T19:47:25.518Z,11.87
2022-11-23T19:49:51.956Z,18.00
2022-11-23T19:52:18.424Z,20.33
2022-11-23T19:54:44.883Z,20.63
2022-11-23T19:57:11.323Z,23.50
2022-11-23T19:59:37.775Z,45.90
2022-11-23T20:02:04.364Z,53.97
2022-11-23T20:04:30.938Z,66.83
2022-11-23T20:06:57.389Z,81.57
2022-11-23T20:09:23.870Z,50.17
2022-11-23T20:11:51.584Z,48.00
2022-11-23T20:14:18.808Z,38.27
2022-11-23T20:16:45.276Z,20.70
2022-11-23T20:19:11.775Z,19.47
2022-11-23T20:21:38.311Z,15.40
2022-11-23T20:24:12.565Z,14.93
2022-11-23T20:26:40.877Z,15.67
2022-11-23T20:29:08.521Z,10.93
2022-11-23T20:31:36.413Z,13.80
2022-11-23T20:34:07.157Z,13.07
2022-11-23T20:36:37.271Z,12.57
2022-11-23T20:39:07.058Z,18.53
2022-11-23T20:41:36.435Z,17.10
2022-11-23T20:44:11.300Z,26.20
2022-11-23T20:49:34.414Z,24.87
2022-11-23T20:52:01.276Z,14.60
2022-11-23T20:54:27.753Z,14.40
2022-11-23T20:56:54.219Z,10.07
2022-11-23T20:59:20.759Z,12.20
2022-11-23T21:01:47.275Z,14.27
2022-11-23T21:04:13.809Z,16.90
2022-11-23T21:06:40.607Z,14.87
2022-11-23T21:09:10.369Z,11.23
2022-11-23T21:11:55.943Z,13.17
2022-11-23T21:14:26.491Z,17.63
2022-11-23T21:16:58.989Z,13.13
2022-11-23T21:19:38.737Z,16.10
2022-11-23T21:22:09.788Z,18.77
2022-11-23T21:24:37.185Z,15.30
2022-11-23T21:27:05.854Z,21.27
2022-11-23T21:29:32.632Z,16.93
2022-11-23T21:32:00.605Z,14.93
2022-11-23T21:34:29.507Z,16.67
2022-11-23T21:36:57.152Z,114.37
2022-11-23T21:39:24.181Z,127.00
2022-11-23T21:41:53.592Z,74.87
2022-11-23T21:44:21.918Z,60.30
2022-11-23T21:46:48.674Z,21.20
2022-11-23T21:49:15.221Z,14.27
2022-11-23T21:51:42.881Z,14.33
2022-11-23T21:54:13.114Z,12.80
2022-11-23T21:56:40.557Z,19.63
2022-11-23T21:59:07.286Z,23.27
2022-11-23T22:01:35.782Z,15.47
2022-11-23T22:04:09.806Z,12.87
2022-11-23T22:06:38.945Z,15.40
2022-11-23T22:09:10.998Z,13.67
2022-11-23T22:11:40.245Z,11.83
2022-11-23T22:14:10.884Z,20.37
2022-11-23T22:16:41.217Z,10.73
2022-11-23T22:19:11.475Z,12.60
2022-11-23T22:21:39.274Z,12.13
2022-11-23T22:24:10.040Z,15.87
2022-11-23T22:26:36.479Z,15.53
2022-11-23T22:29:05.837Z,16.83
2022-11-23T22:31:34.126Z,18.43
2022-11-23T22:34:03.823Z,22.13
2022-11-23T22:36:30.945Z,24.27
2022-11-23T22:39:02.003Z,14.30
2022-11-23T22:41:32.702Z,14.80
2022-11-23T22:43:59.381Z,11.83
2022-11-23T22:46:25.894Z,17.40
2022-11-23T22:48:52.965Z,15.60
2022-11-23T22:51:22.277Z,16.07
2022-11-23T22:53:57.238Z,16.73
2022-11-23T22:56:24.323Z,11.97
2022-11-23T22:58:50.768Z,15.97
2022-11-23T23:01:27.176Z,18.53
2022-11-23T23:03:56.311Z,32.30
2022-11-23T23:06:26.486Z,30.37
2022-11-23T23:08:58.573Z,18.63
2022-11-23T23:11:29.692Z,16.90
2022-11-23T23:13:57.060Z,15.33
2022-11-23T23:16:24.427Z,14.00
2022-11-23T23:18:51.406Z,11.47
2022-11-23T23:21:20.664Z,22.40
2022-11-23T23:23:50.847Z,18.43
2022-11-23T23:26:21.338Z,14.17
2022-11-23T23:28:48.899Z,18.27
2022-11-23T23:31:16.673Z,16.07
2022-11-23T23:33:46.657Z,18.07
2022-11-23T23:36:20.069Z,15.47
2022-11-23T23:38:46.926Z,15.50
2022-11-23T23:41:14.459Z,19.83
2022-11-23T23:43:42.134Z,14.57
2022-11-23T23:46:12.667Z,13.63
2022-11-23T23:48:40.200Z,15.30
2022-11-23T23:51:16.529Z,13.17
2022-11-23T23:53:44.496Z,17.20
2022-11-23T23:56:27.480Z,11.67
2022-11-23T23:58:58.331Z,12.20
